sensor_id;sensor_type;location;lat;lon;timestamp;temperature;humidity
3648;DHT22;1840;48.892;15.312;2023-07-31T00:00:14;13.70;98.70
3648;DHT22;1840;48.892;15.312;2023-07-31T00:02:42;13.70;98.60
3648;DHT22;1840;48.892;15.312;2023-07-31T00:05:10;13.70;98.60
3648;DHT22;1840;48.892;15.312;2023-07-31T00:07:38;13.70;98.60
3648;DHT22;1840;48.892;15.312;2023-07-31T00:10:07;13.70;98.70
3648;DHT22;1840;48.892;15.312;2023-07-31T00:12:35;13.70;98.70
3648;DHT22;1840;48.892;15.312;2023-07-31T00:15:04;13.70;98.60
3648;DHT22;1840;48.892;15.312;2023-07-31T00:17:34;13.70;98.70
3648;DHT22;1840;48.892;15.312;2023-07-31T00:20:02;13.60;98.60
3648;DHT22;1840;48.892;15.312;2023-07-31T00:22:31;13.60;98.80
3648;DHT22;1840;48.892;15.312;2023-07-31T00:24:59;13.60;98.80
3648;DHT22;1840;48.892;15.312;2023-07-31T00:27:27;13.60;98.80
3648;DHT22;1840;48.892;15.312;2023-07-31T00:29:55;13.50;98.60
3648;DHT22;1840;48.892;15.312;2023-07-31T00:32:23;13.50;98.60
3648;DHT22;1840;48.892;15.312;2023-07-31T00:34:52;13.40;98.50
3648;DHT22;1840;48.892;15.312;2023-07-31T00:37:21;13.40;98.40
3648;DHT22;1840;48.892;15.312;2023-07-31T00:39:49;13.40;98.50
3648;DHT22;1840;48.892;15.312;2023-07-31T00:42:17;13.50;98.50
3648;DHT22;1840;48.892;15.312;2023-07-31T00:44:45;13.40;98.40
3648;DHT22;1840;48.892;15.312;2023-07-31T00:47:13;13.40;98.50
3648;DHT22;1840;48.892;15.312;2023-07-31T00:49:41;13.40;98.60
3648;DHT22;1840;48.892;15.312;2023-07-31T00:52:10;13.30;98.60
3648;DHT22;1840;48.892;15.312;2023-07-31T00:54:39;13.40;98.50
3648;DHT22;1840;48.892;15.312;2023-07-31T00:57:07;13.40;98.60
3648;DHT22;1840;48.892;15.312;2023-07-31T00:59:35;13.40;98.60
3648;DHT22;1840;48.892;15.312;2023-07-31T01:02:04;13.30;98.50
3648;DHT22;1840;48.892;15.312;2023-07-31T01:04:32;13.30;98.50
3648;DHT22;1840;48.892;15.312;2023-07-31T01:07:04;13.30;98.50
3648;DHT22;1840;48.892;15.312;2023-07-31T01:09:43;13.30;98.60
3648;DHT22;1840;48.892;15.312;2023-07-31T01:12:14;13.30;98.40
3648;DHT22;1840;48.892;15.312;2023-07-31T01:14:51;13.20;98.50
3648;DHT22;1840;48.892;15.312;2023-07-31T01:17:19;13.20;98.60
3648;DHT22;1840;48.892;15.312;2023-07-31T01:19:48;13.20;98.60
3648;DHT22;1840;48.892;15.312;2023-07-31T01:22:28;13.20;98.60
3648;DHT22;1840;48.892;15.312;2023-07-31T01:25:11;13.20;98.70
3648;DHT22;1840;48.892;15.312;2023-07-31T01:27:51;13.10;98.70
3648;DHT22;1840;48.892;15.312;2023-07-31T01:30:24;13.00;98.60
3648;DHT22;1840;48.892;15.312;2023-07-31T01:32:54;12.90;98.60
3648;DHT22;1840;48.892;15.312;2023-07-31T01:35:22;12.80;98.70
3648;DHT22;1840;48.892;15.312;2023-07-31T01:37:52;12.80;98.80
3648;DHT22;1840;48.892;15.312;2023-07-31T01:40:21;12.80;98.80
3648;DHT22;1840;48.892;15.312;2023-07-31T01:42:51;12.90;98.90
3648;DHT22;1840;48.892;15.312;2023-07-31T01:45:19;12.90;99.00
3648;DHT22;1840;48.892;15.312;2023-07-31T01:47:47;12.90;98.90
3648;DHT22;1840;48.892;15.312;2023-07-31T01:50:15;12.90;98.90
3648;DHT22;1840;48.892;15.312;2023-07-31T01:52:43;12.90;98.80
3648;DHT22;1840;48.892;15.312;2023-07-31T01:55:11;12.90;98.70
3648;DHT22;1840;48.892;15.312;2023-07-31T01:57:39;12.90;98.80
3648;DHT22;1840;48.892;15.312;2023-07-31T02:00:10;13.00;99.10
3648;DHT22;1840;48.892;15.312;2023-07-31T02:02:37;13.00;99.10
3648;DHT22;1840;48.892;15.312;2023-07-31T02:05:06;13.00;99.00
3648;DHT22;1840;48.892;15.312;2023-07-31T02:07:34;13.00;99.20
3648;DHT22;1840;48.892;15.312;2023-07-31T02:10:02;13.00;99.00
3648;DHT22;1840;48.892;15.312;2023-07-31T02:12:30;12.90;99.20
3648;DHT22;1840;48.892;15.312;2023-07-31T02:14:59;12.90;99.20
3648;DHT22;1840;48.892;15.312;2023-07-31T02:17:28;13.00;99.20
3648;DHT22;1840;48.892;15.312;2023-07-31T02:19:56;13.00;99.10
3648;DHT22;1840;48.892;15.312;2023-07-31T02:22:25;12.80;99.30
3648;DHT22;1840;48.892;15.312;2023-07-31T02:24:53;12.90;99.20
3648;DHT22;1840;48.892;15.312;2023-07-31T02:27:21;13.00;99.10
3648;DHT22;1840;48.892;15.312;2023-07-31T02:29:50;13.00;99.10
3648;DHT22;1840;48.892;15.312;2023-07-31T02:32:18;13.00;99.10
3648;DHT22;1840;48.892;15.312;2023-07-31T02:34:48;13.00;98.90
3648;DHT22;1840;48.892;15.312;2023-07-31T02:37:16;13.00;99.00
3648;DHT22;1840;48.892;15.312;2023-07-31T02:39:44;13.00;98.80
3648;DHT22;1840;48.892;15.312;2023-07-31T02:42:12;13.00;99.00
3648;DHT22;1840;48.892;15.312;2023-07-31T02:44:40;13.00;98.90
3648;DHT22;1840;48.892;15.312;2023-07-31T02:47:09;13.00;98.90
3648;DHT22;1840;48.892;15.312;2023-07-31T02:49:37;13.00;98.90
3648;DHT22;1840;48.892;15.312;2023-07-31T02:52:06;13.00;98.80
3648;DHT22;1840;48.892;15.312;2023-07-31T02:54:34;13.00;99.10
3648;DHT22;1840;48.892;15.312;2023-07-31T02:57:03;13.00;98.90
3648;DHT22;1840;48.892;15.312;2023-07-31T02:59:31;13.10;99.00
3648;DHT22;1840;48.892;15.312;2023-07-31T03:01:59;13.10;99.00
3648;DHT22;1840;48.892;15.312;2023-07-31T03:04:27;13.10;99.30
3648;DHT22;1840;48.892;15.312;2023-07-31T03:06:55;13.00;99.10
3648;DHT22;1840;48.892;15.312;2023-07-31T03:09:25;13.10;99.00
3648;DHT22;1840;48.892;15.312;2023-07-31T03:11:53;13.10;98.90
3648;DHT22;1840;48.892;15.312;2023-07-31T03:14:21;13.20;98.90
3648;DHT22;1840;48.892;15.312;2023-07-31T03:16:49;13.20;98.80
3648;DHT22;1840;48.892;15.312;2023-07-31T03:19:18;13.20;98.80
3648;DHT22;1840;48.892;15.312;2023-07-31T03:21:46;13.20;98.80
3648;DHT22;1840;48.892;15.312;2023-07-31T03:24:14;13.10;98.60
3648;DHT22;1840;48.892;15.312;2023-07-31T03:26:43;13.10;98.70
3648;DHT22;1840;48.892;15.312;2023-07-31T03:29:11;13.10;98.80
3648;DHT22;1840;48.892;15.312;2023-07-31T03:31:39;13.20;98.70
3648;DHT22;1840;48.892;15.312;2023-07-31T03:34:08;13.10;98.70
3648;DHT22;1840;48.892;15.312;2023-07-31T03:36:36;13.00;98.60
3648;DHT22;1840;48.892;15.312;2023-07-31T03:39:04;13.10;98.70
3648;DHT22;1840;48.892;15.312;2023-07-31T03:41:32;13.10;98.60
3648;DHT22;1840;48.892;15.312;2023-07-31T03:44:02;13.20;98.50
3648;DHT22;1840;48.892;15.312;2023-07-31T03:46:30;13.30;98.60
3648;DHT22;1840;48.892;15.312;2023-07-31T03:48:59;13.20;98.30
3648;DHT22;1840;48.892;15.312;2023-07-31T03:51:27;13.20;98.30
3648;DHT22;1840;48.892;15.312;2023-07-31T03:53:55;13.10;98.20
3648;DHT22;1840;48.892;15.312;2023-07-31T03:56:23;13.20;98.30
3648;DHT22;1840;48.892;15.312;2023-07-31T03:58:51;13.20;98.10
3648;DHT22;1840;48.892;15.312;2023-07-31T04:01:21;13.20;98.20
3648;DHT22;1840;48.892;15.312;2023-07-31T04:03:49;13.20;98.00
3648;DHT22;1840;48.892;15.312;2023-07-31T04:06:17;13.30;97.80
3648;DHT22;1840;48.892;15.312;2023-07-31T04:08:45;13.20;97.90
3648;DHT22;1840;48.892;15.312;2023-07-31T04:11:13;13.10;98.10
3648;DHT22;1840;48.892;15.312;2023-07-31T04:13:41;13.20;97.90
3648;DHT22;1840;48.892;15.312;2023-07-31T04:16:10;13.30;97.80
3648;DHT22;1840;48.892;15.312;2023-07-31T04:18:40;13.40;97.90
3648;DHT22;1840;48.892;15.312;2023-07-31T04:21:08;13.40;97.70
3648;DHT22;1840;48.892;15.312;2023-07-31T04:23:36;13.40;97.30
3648;DHT22;1840;48.892;15.312;2023-07-31T04:26:05;13.40;97.60
3648;DHT22;1840;48.892;15.312;2023-07-31T04:28:33;13.40;97.50
3648;DHT22;1840;48.892;15.312;2023-07-31T04:31:02;13.50;97.10
3648;DHT22;1840;48.892;15.312;2023-07-31T04:33:30;13.50;97.40
3648;DHT22;1840;48.892;15.312;2023-07-31T04:35:59;13.60;97.10
3648;DHT22;1840;48.892;15.312;2023-07-31T04:38:27;13.50;97.20
3648;DHT22;1840;48.892;15.312;2023-07-31T04:40:55;13.50;97.40
3648;DHT22;1840;48.892;15.312;2023-07-31T04:43:23;13.40;97.20
3648;DHT22;1840;48.892;15.312;2023-07-31T04:45:52;13.40;96.90
3648;DHT22;1840;48.892;15.312;2023-07-31T04:48:20;13.50;97.10
3648;DHT22;1840;48.892;15.312;2023-07-31T04:50:49;13.60;97.00
3648;DHT22;1840;48.892;15.312;2023-07-31T04:53:19;13.60;96.80
3648;DHT22;1840;48.892;15.312;2023-07-31T04:55:47;13.50;96.80
3648;DHT22;1840;48.892;15.312;2023-07-31T04:58:15;13.70;96.80
3648;DHT22;1840;48.892;15.312;2023-07-31T05:00:43;13.80;96.70
3648;DHT22;1840;48.892;15.312;2023-07-31T05:03:11;13.80;96.60
3648;DHT22;1840;48.892;15.312;2023-07-31T05:05:40;13.90;96.30
3648;DHT22;1840;48.892;15.312;2023-07-31T05:08:08;13.90;96.50
3648;DHT22;1840;48.892;15.312;2023-07-31T05:10:37;13.90;96.40
3648;DHT22;1840;48.892;15.312;2023-07-31T05:13:05;13.90;96.50
3648;DHT22;1840;48.892;15.312;2023-07-31T05:15:34;14.00;96.30
3648;DHT22;1840;48.892;15.312;2023-07-31T05:18:02;14.00;96.20
3648;DHT22;1840;48.892;15.312;2023-07-31T05:20:30;14.10;96.10
3648;DHT22;1840;48.892;15.312;2023-07-31T05:22:58;14.00;96.20
3648;DHT22;1840;48.892;15.312;2023-07-31T05:25:26;14.10;96.10
3648;DHT22;1840;48.892;15.312;2023-07-31T05:27:56;14.20;95.90
3648;DHT22;1840;48.892;15.312;2023-07-31T05:30:24;14.10;96.10
3648;DHT22;1840;48.892;15.312;2023-07-31T05:32:52;14.30;95.90
3648;DHT22;1840;48.892;15.312;2023-07-31T05:35:20;14.30;95.80
3648;DHT22;1840;48.892;15.312;2023-07-31T05:37:48;14.20;95.70
3648;DHT22;1840;48.892;15.312;2023-07-31T05:40:17;14.40;95.90
3648;DHT22;1840;48.892;15.312;2023-07-31T05:42:45;14.50;95.80
3648;DHT22;1840;48.892;15.312;2023-07-31T05:45:14;14.60;95.70
3648;DHT22;1840;48.892;15.312;2023-07-31T05:47:42;14.60;95.50
3648;DHT22;1840;48.892;15.312;2023-07-31T05:50:10;14.60;95.30
3648;DHT22;1840;48.892;15.312;2023-07-31T05:52:40;14.60;95.60
3648;DHT22;1840;48.892;15.312;2023-07-31T05:55:08;14.60;95.50
3648;DHT22;1840;48.892;15.312;2023-07-31T05:57:36;14.90;95.50
3648;DHT22;1840;48.892;15.312;2023-07-31T06:00:06;15.00;95.20
3648;DHT22;1840;48.892;15.312;2023-07-31T06:02:35;15.10;95.00
3648;DHT22;1840;48.892;15.312;2023-07-31T06:05:04;15.20;94.60
3648;DHT22;1840;48.892;15.312;2023-07-31T06:07:33;15.20;94.20
3648;DHT22;1840;48.892;15.312;2023-07-31T06:10:01;15.30;94.90
3648;DHT22;1840;48.892;15.312;2023-07-31T06:12:31;15.20;94.70
3648;DHT22;1840;48.892;15.312;2023-07-31T06:14:59;15.10;94.40
3648;DHT22;1840;48.892;15.312;2023-07-31T06:17:28;15.20;94.50
3648;DHT22;1840;48.892;15.312;2023-07-31T06:19:57;15.30;94.50
3648;DHT22;1840;48.892;15.312;2023-07-31T06:22:25;15.40;94.70
3648;DHT22;1840;48.892;15.312;2023-07-31T06:24:54;15.60;94.70
3648;DHT22;1840;48.892;15.312;2023-07-31T06:27:22;15.80;94.20
3648;DHT22;1840;48.892;15.312;2023-07-31T06:29:50;15.80;94.20
3648;DHT22;1840;48.892;15.312;2023-07-31T06:32:18;16.10;94.40
3648;DHT22;1840;48.892;15.312;2023-07-31T06:34:46;16.40;93.80
3648;DHT22;1840;48.892;15.312;2023-07-31T06:37:16;16.70;93.60
3648;DHT22;1840;48.892;15.312;2023-07-31T06:39:44;17.00;92.40
3648;DHT22;1840;48.892;15.312;2023-07-31T06:42:12;16.80;91.90
3648;DHT22;1840;48.892;15.312;2023-07-31T06:44:40;16.70;91.50
3648;DHT22;1840;48.892;15.312;2023-07-31T06:47:08;16.60;91.20
3648;DHT22;1840;48.892;15.312;2023-07-31T06:49:36;16.80;91.80
3648;DHT22;1840;48.892;15.312;2023-07-31T06:52:04;16.70;92.00
3648;DHT22;1840;48.892;15.312;2023-07-31T06:54:34;16.60;91.00
3648;DHT22;1840;48.892;15.312;2023-07-31T06:57:02;16.40;91.60
3648;DHT22;1840;48.892;15.312;2023-07-31T06:59:30;16.60;91.80
3648;DHT22;1840;48.892;15.312;2023-07-31T07:01:58;16.80;92.40
3648;DHT22;1840;48.892;15.312;2023-07-31T07:04:26;17.20;92.30
3648;DHT22;1840;48.892;15.312;2023-07-31T07:06:54;17.20;90.80
3648;DHT22;1840;48.892;15.312;2023-07-31T07:09:22;17.00;90.50
3648;DHT22;1840;48.892;15.312;2023-07-31T07:11:51;16.90;90.80
3648;DHT22;1840;48.892;15.312;2023-07-31T07:14:19;17.00;91.20
3648;DHT22;1840;48.892;15.312;2023-07-31T07:16:50;17.10;91.20
3648;DHT22;1840;48.892;15.312;2023-07-31T07:19:19;17.10;90.70
3648;DHT22;1840;48.892;15.312;2023-07-31T07:21:47;17.30;91.10
3648;DHT22;1840;48.892;15.312;2023-07-31T07:24:15;17.20;90.80
3648;DHT22;1840;48.892;15.312;2023-07-31T07:26:43;17.10;90.50
3648;DHT22;1840;48.892;15.312;2023-07-31T07:29:12;17.00;90.60
3648;DHT22;1840;48.892;15.312;2023-07-31T07:31:40;16.90;90.80
3648;DHT22;1840;48.892;15.312;2023-07-31T07:34:08;16.90;90.50
3648;DHT22;1840;48.892;15.312;2023-07-31T07:36:36;16.70;90.30
3648;DHT22;1840;48.892;15.312;2023-07-31T07:39:05;16.80;90.10
3648;DHT22;1840;48.892;15.312;2023-07-31T07:41:33;16.80;90.20
3648;DHT22;1840;48.892;15.312;2023-07-31T07:44:01;16.90;90.60
3648;DHT22;1840;48.892;15.312;2023-07-31T07:46:30;17.00;90.90
3648;DHT22;1840;48.892;15.312;2023-07-31T07:48:58;17.10;90.80
3648;DHT22;1840;48.892;15.312;2023-07-31T07:51:26;17.20;90.80
3648;DHT22;1840;48.892;15.312;2023-07-31T07:53:56;17.30;90.10
3648;DHT22;1840;48.892;15.312;2023-07-31T07:56:25;17.30;90.10
3648;DHT22;1840;48.892;15.312;2023-07-31T07:58:53;17.40;90.20
3648;DHT22;1840;48.892;15.312;2023-07-31T08:01:22;17.40;89.90
3648;DHT22;1840;48.892;15.312;2023-07-31T08:03:51;17.60;90.50
3648;DHT22;1840;48.892;15.312;2023-07-31T08:06:20;17.60;89.90
3648;DHT22;1840;48.892;15.312;2023-07-31T08:08:49;17.70;89.80
3648;DHT22;1840;48.892;15.312;2023-07-31T08:11:17;17.60;88.00
3648;DHT22;1840;48.892;15.312;2023-07-31T08:13:46;17.70;88.30
3648;DHT22;1840;48.892;15.312;2023-07-31T08:16:14;17.70;87.70
3648;DHT22;1840;48.892;15.312;2023-07-31T08:18:42;17.80;88.20
3648;DHT22;1840;48.892;15.312;2023-07-31T08:21:11;17.70;86.00
3648;DHT22;1840;48.892;15.312;2023-07-31T08:23:39;17.80;88.10
3648;DHT22;1840;48.892;15.312;2023-07-31T08:26:07;17.90;84.70
3648;DHT22;1840;48.892;15.312;2023-07-31T08:28:36;17.70;84.00
3648;DHT22;1840;48.892;15.312;2023-07-31T08:31:04;17.70;83.00
3648;DHT22;1840;48.892;15.312;2023-07-31T08:33:32;17.60;86.00
3648;DHT22;1840;48.892;15.312;2023-07-31T08:36:00;17.70;85.00
3648;DHT22;1840;48.892;15.312;2023-07-31T08:38:29;17.90;87.10
3648;DHT22;1840;48.892;15.312;2023-07-31T08:40:58;17.90;84.90
3648;DHT22;1840;48.892;15.312;2023-07-31T08:43:26;18.10;86.30
3648;DHT22;1840;48.892;15.312;2023-07-31T08:45:55;18.50;85.50
3648;DHT22;1840;48.892;15.312;2023-07-31T08:48:23;18.60;84.40
3648;DHT22;1840;48.892;15.312;2023-07-31T08:50:52;18.70;85.60
3648;DHT22;1840;48.892;15.312;2023-07-31T08:53:20;18.70;84.50
3648;DHT22;1840;48.892;15.312;2023-07-31T08:55:52;18.60;84.60
3648;DHT22;1840;48.892;15.312;2023-07-31T08:58:21;18.70;85.80
3648;DHT22;1840;48.892;15.312;2023-07-31T09:00:51;18.90;86.80
3648;DHT22;1840;48.892;15.312;2023-07-31T09:03:22;19.10;84.90
3648;DHT22;1840;48.892;15.312;2023-07-31T09:05:51;19.30;83.30
3648;DHT22;1840;48.892;15.312;2023-07-31T09:08:21;19.10;84.10
3648;DHT22;1840;48.892;15.312;2023-07-31T09:10:50;19.30;84.10
3648;DHT22;1840;48.892;15.312;2023-07-31T09:13:18;19.20;82.50
3648;DHT22;1840;48.892;15.312;2023-07-31T09:15:46;19.40;84.20
3648;DHT22;1840;48.892;15.312;2023-07-31T09:18:14;19.40;83.90
3648;DHT22;1840;48.892;15.312;2023-07-31T09:20:45;19.40;82.40
3648;DHT22;1840;48.892;15.312;2023-07-31T09:23:14;19.60;81.80
3648;DHT22;1840;48.892;15.312;2023-07-31T09:25:44;19.40;80.90
3648;DHT22;1840;48.892;15.312;2023-07-31T09:28:13;19.10;80.80
3648;DHT22;1840;48.892;15.312;2023-07-31T09:30:47;19.10;83.00
3648;DHT22;1840;48.892;15.312;2023-07-31T09:33:16;19.20;83.40
3648;DHT22;1840;48.892;15.312;2023-07-31T09:35:44;19.10;83.00
3648;DHT22;1840;48.892;15.312;2023-07-31T09:38:14;19.10;82.30
3648;DHT22;1840;48.892;15.312;2023-07-31T09:40:43;19.20;82.20
3648;DHT22;1840;48.892;15.312;2023-07-31T09:43:17;19.20;82.00
3648;DHT22;1840;48.892;15.312;2023-07-31T09:45:46;19.30;82.40
3648;DHT22;1840;48.892;15.312;2023-07-31T09:48:16;19.10;80.80
3648;DHT22;1840;48.892;15.312;2023-07-31T09:50:45;18.90;82.90
3648;DHT22;1840;48.892;15.312;2023-07-31T09:53:14;19.00;82.80
3648;DHT22;1840;48.892;15.312;2023-07-31T09:55:43;19.00;82.70
3648;DHT22;1840;48.892;15.312;2023-07-31T09:58:13;19.20;82.50
3648;DHT22;1840;48.892;15.312;2023-07-31T10:00:41;19.50;82.30
3648;DHT22;1840;48.892;15.312;2023-07-31T10:03:10;19.80;81.40
3648;DHT22;1840;48.892;15.312;2023-07-31T10:05:40;20.20;79.60
3648;DHT22;1840;48.892;15.312;2023-07-31T10:08:10;20.20;79.80
3648;DHT22;1840;48.892;15.312;2023-07-31T10:10:43;20.30;79.90
3648;DHT22;1840;48.892;15.312;2023-07-31T10:13:13;20.30;81.50
3648;DHT22;1840;48.892;15.312;2023-07-31T10:15:42;20.50;79.20
3648;DHT22;1840;48.892;15.312;2023-07-31T10:18:11;20.20;79.40
3648;DHT22;1840;48.892;15.312;2023-07-31T10:20:40;20.10;79.60
3648;DHT22;1840;48.892;15.312;2023-07-31T10:23:09;20.00;81.80
3648;DHT22;1840;48.892;15.312;2023-07-31T10:25:38;20.20;80.00
3648;DHT22;1840;48.892;15.312;2023-07-31T10:28:07;20.30;79.10
3648;DHT22;1840;48.892;15.312;2023-07-31T10:30:38;20.30;80.20
3648;DHT22;1840;48.892;15.312;2023-07-31T10:33:07;20.10;80.80
3648;DHT22;1840;48.892;15.312;2023-07-31T10:35:36;20.00;81.50
3648;DHT22;1840;48.892;15.312;2023-07-31T10:38:09;20.20;80.90
3648;DHT22;1840;48.892;15.312;2023-07-31T10:40:38;20.30;81.00
3648;DHT22;1840;48.892;15.312;2023-07-31T10:43:07;20.20;77.70
3648;DHT22;1840;48.892;15.312;2023-07-31T10:45:42;19.90;78.90
3648;DHT22;1840;48.892;15.312;2023-07-31T10:48:13;19.80;80.70
3648;DHT22;1840;48.892;15.312;2023-07-31T10:50:47;20.00;80.70
3648;DHT22;1840;48.892;15.312;2023-07-31T10:53:23;20.30;79.70
3648;DHT22;1840;48.892;15.312;2023-07-31T10:55:52;20.50;79.40
3648;DHT22;1840;48.892;15.312;2023-07-31T10:58:21;20.70;79.70
3648;DHT22;1840;48.892;15.312;2023-07-31T11:00:55;20.90;78.60
3648;DHT22;1840;48.892;15.312;2023-07-31T11:03:25;21.30;76.50
3648;DHT22;1840;48.892;15.312;2023-07-31T11:06:00;21.40;77.30
3648;DHT22;1840;48.892;15.312;2023-07-31T11:08:31;21.40;76.90
3648;DHT22;1840;48.892;15.312;2023-07-31T11:11:07;21.20;76.20
3648;DHT22;1840;48.892;15.312;2023-07-31T11:13:40;21.20;76.50
3648;DHT22;1840;48.892;15.312;2023-07-31T11:16:10;21.10;76.80
3648;DHT22;1840;48.892;15.312;2023-07-31T11:18:40;21.20;78.30
3648;DHT22;1840;48.892;15.312;2023-07-31T11:21:12;21.60;75.80
3648;DHT22;1840;48.892;15.312;2023-07-31T11:23:40;21.90;76.70
3648;DHT22;1840;48.892;15.312;2023-07-31T11:26:09;21.80;75.70
3648;DHT22;1840;48.892;15.312;2023-07-31T11:28:37;21.70;77.40
3648;DHT22;1840;48.892;15.312;2023-07-31T11:31:08;21.70;75.70
3648;DHT22;1840;48.892;15.312;2023-07-31T11:33:38;21.70;76.70
3648;DHT22;1840;48.892;15.312;2023-07-31T11:36:06;21.60;76.00
3648;DHT22;1840;48.892;15.312;2023-07-31T11:38:41;21.90;74.50
3648;DHT22;1840;48.892;15.312;2023-07-31T11:41:09;22.30;73.10
3648;DHT22;1840;48.892;15.312;2023-07-31T11:43:37;22.40;71.20
3648;DHT22;1840;48.892;15.312;2023-07-31T11:46:05;22.40;73.00
3648;DHT22;1840;48.892;15.312;2023-07-31T11:48:36;22.40;72.40
3648;DHT22;1840;48.892;15.312;2023-07-31T11:51:07;22.30;72.30
3648;DHT22;1840;48.892;15.312;2023-07-31T11:53:38;22.30;73.30
3648;DHT22;1840;48.892;15.312;2023-07-31T11:56:07;22.30;71.80
3648;DHT22;1840;48.892;15.312;2023-07-31T11:58:38;22.10;72.10
3648;DHT22;1840;48.892;15.312;2023-07-31T12:01:07;22.10;73.50
3648;DHT22;1840;48.892;15.312;2023-07-31T12:03:36;22.20;73.80
3648;DHT22;1840;48.892;15.312;2023-07-31T12:06:05;22.10;72.40
3648;DHT22;1840;48.892;15.312;2023-07-31T12:08:33;22.30;73.60
3648;DHT22;1840;48.892;15.312;2023-07-31T12:11:03;22.70;71.50
3648;DHT22;1840;48.892;15.312;2023-07-31T12:13:32;22.80;72.80
3648;DHT22;1840;48.892;15.312;2023-07-31T12:16:03;22.70;71.70
3648;DHT22;1840;48.892;15.312;2023-07-31T12:18:34;22.60;70.80
3648;DHT22;1840;48.892;15.312;2023-07-31T12:21:06;22.80;72.70
3648;DHT22;1840;48.892;15.312;2023-07-31T12:23:36;22.60;72.60
3648;DHT22;1840;48.892;15.312;2023-07-31T12:26:06;22.80;73.50
3648;DHT22;1840;48.892;15.312;2023-07-31T12:28:40;23.00;71.60
3648;DHT22;1840;48.892;15.312;2023-07-31T12:31:10;23.20;70.60
3648;DHT22;1840;48.892;15.312;2023-07-31T12:33:39;23.30;71.00
3648;DHT22;1840;48.892;15.312;2023-07-31T12:36:10;23.10;71.20
3648;DHT22;1840;48.892;15.312;2023-07-31T12:38:39;22.60;71.30
3648;DHT22;1840;48.892;15.312;2023-07-31T12:41:07;22.40;73.00
3648;DHT22;1840;48.892;15.312;2023-07-31T12:43:35;22.40;74.00
3648;DHT22;1840;48.892;15.312;2023-07-31T12:46:04;22.70;71.20
3648;DHT22;1840;48.892;15.312;2023-07-31T12:48:32;22.70;70.70
3648;DHT22;1840;48.892;15.312;2023-07-31T12:51:00;22.70;71.20
3648;DHT22;1840;48.892;15.312;2023-07-31T12:53:30;23.20;71.50
3648;DHT22;1840;48.892;15.312;2023-07-31T12:55:58;23.50;70.50
3648;DHT22;1840;48.892;15.312;2023-07-31T12:58:27;23.60;69.60
3648;DHT22;1840;48.892;15.312;2023-07-31T13:00:55;23.40;70.40
3648;DHT22;1840;48.892;15.312;2023-07-31T13:03:23;23.20;71.00
3648;DHT22;1840;48.892;15.312;2023-07-31T13:05:52;22.90;68.70
3648;DHT22;1840;48.892;15.312;2023-07-31T13:08:20;22.60;71.00
3648;DHT22;1840;48.892;15.312;2023-07-31T13:10:50;22.40;70.30
3648;DHT22;1840;48.892;15.312;2023-07-31T13:13:18;22.40;71.80
3648;DHT22;1840;48.892;15.312;2023-07-31T13:15:46;22.60;70.90
3648;DHT22;1840;48.892;15.312;2023-07-31T13:18:14;22.60;71.30
3648;DHT22;1840;48.892;15.312;2023-07-31T13:20:42;22.80;72.40
3648;DHT22;1840;48.892;15.312;2023-07-31T13:23:10;23.10;73.70
3648;DHT22;1840;48.892;15.312;2023-07-31T13:25:38;23.00;72.20
3648;DHT22;1840;48.892;15.312;2023-07-31T13:28:08;23.10;72.70
3648;DHT22;1840;48.892;15.312;2023-07-31T13:30:36;23.00;71.10
3648;DHT22;1840;48.892;15.312;2023-07-31T13:33:04;23.00;70.70
3648;DHT22;1840;48.892;15.312;2023-07-31T13:35:40;23.00;71.10
3648;DHT22;1840;48.892;15.312;2023-07-31T13:38:08;22.90;71.80
3648;DHT22;1840;48.892;15.312;2023-07-31T13:40:36;22.70;69.90
3648;DHT22;1840;48.892;15.312;2023-07-31T13:43:04;22.60;67.00
3648;DHT22;1840;48.892;15.312;2023-07-31T13:45:34;22.50;68.90
3648;DHT22;1840;48.892;15.312;2023-07-31T13:48:02;22.50;66.30
3648;DHT22;1840;48.892;15.312;2023-07-31T13:50:30;22.60;67.10
3648;DHT22;1840;48.892;15.312;2023-07-31T13:52:58;22.70;67.70
3648;DHT22;1840;48.892;15.312;2023-07-31T13:55:26;22.70;66.70
3648;DHT22;1840;48.892;15.312;2023-07-31T13:57:54;22.70;67.70
3648;DHT22;1840;48.892;15.312;2023-07-31T14:00:22;22.80;66.40
3648;DHT22;1840;48.892;15.312;2023-07-31T14:02:52;22.90;66.80
3648;DHT22;1840;48.892;15.312;2023-07-31T14:05:20;22.90;66.50
3648;DHT22;1840;48.892;15.312;2023-07-31T14:07:48;22.80;67.80
3648;DHT22;1840;48.892;15.312;2023-07-31T14:10:16;23.00;68.80
3648;DHT22;1840;48.892;15.312;2023-07-31T14:12:44;22.70;68.10
3648;DHT22;1840;48.892;15.312;2023-07-31T14:15:12;22.80;68.80
3648;DHT22;1840;48.892;15.312;2023-07-31T14:17:40;23.00;69.00
3648;DHT22;1840;48.892;15.312;2023-07-31T14:20:11;23.00;68.10
3648;DHT22;1840;48.892;15.312;2023-07-31T14:22:40;22.70;67.20
3648;DHT22;1840;48.892;15.312;2023-07-31T14:25:08;22.30;70.60
3648;DHT22;1840;48.892;15.312;2023-07-31T14:27:37;22.50;69.50
3648;DHT22;1840;48.892;15.312;2023-07-31T14:30:06;22.50;68.70
3648;DHT22;1840;48.892;15.312;2023-07-31T14:32:35;22.50;69.60
3648;DHT22;1840;48.892;15.312;2023-07-31T14:35:04;22.50;69.70
3648;DHT22;1840;48.892;15.312;2023-07-31T14:37:38;22.70;69.40
3648;DHT22;1840;48.892;15.312;2023-07-31T14:40:07;22.90;71.10
3648;DHT22;1840;48.892;15.312;2023-07-31T14:42:36;23.00;70.20
3648;DHT22;1840;48.892;15.312;2023-07-31T14:45:05;23.30;68.80
3648;DHT22;1840;48.892;15.312;2023-07-31T14:47:34;23.30;70.00
3648;DHT22;1840;48.892;15.312;2023-07-31T14:50:03;23.40;67.30
3648;DHT22;1840;48.892;15.312;2023-07-31T14:52:31;23.30;68.10
3648;DHT22;1840;48.892;15.312;2023-07-31T14:55:00;23.20;68.30
3648;DHT22;1840;48.892;15.312;2023-07-31T14:57:28;23.00;68.20
3648;DHT22;1840;48.892;15.312;2023-07-31T14:59:56;22.90;69.40
3648;DHT22;1840;48.892;15.312;2023-07-31T15:02:26;23.10;69.00
3648;DHT22;1840;48.892;15.312;2023-07-31T15:04:54;23.20;69.20
3648;DHT22;1840;48.892;15.312;2023-07-31T15:07:22;23.20;69.30
3648;DHT22;1840;48.892;15.312;2023-07-31T15:09:50;23.30;68.20
3648;DHT22;1840;48.892;15.312;2023-07-31T15:12:20;23.20;69.00
3648;DHT22;1840;48.892;15.312;2023-07-31T15:14:48;23.30;69.40
3648;DHT22;1840;48.892;15.312;2023-07-31T15:17:16;23.40;69.10
3648;DHT22;1840;48.892;15.312;2023-07-31T15:19:44;23.50;70.50
3648;DHT22;1840;48.892;15.312;2023-07-31T15:22:12;23.40;70.40
3648;DHT22;1840;48.892;15.312;2023-07-31T15:24:40;23.30;70.40
3648;DHT22;1840;48.892;15.312;2023-07-31T15:27:08;23.50;69.90
3648;DHT22;1840;48.892;15.312;2023-07-31T15:29:38;23.40;66.30
3648;DHT22;1840;48.892;15.312;2023-07-31T15:32:06;23.10;66.60
3648;DHT22;1840;48.892;15.312;2023-07-31T15:34:35;23.00;67.00
3648;DHT22;1840;48.892;15.312;2023-07-31T15:37:03;22.90;67.70
3648;DHT22;1840;48.892;15.312;2023-07-31T15:39:31;22.90;67.00
3648;DHT22;1840;48.892;15.312;2023-07-31T15:41:59;23.10;68.00
3648;DHT22;1840;48.892;15.312;2023-07-31T15:44:28;23.00;69.50
3648;DHT22;1840;48.892;15.312;2023-07-31T15:46:57;23.10;69.40
3648;DHT22;1840;48.892;15.312;2023-07-31T15:49:25;23.10;68.90
3648;DHT22;1840;48.892;15.312;2023-07-31T15:51:54;23.00;69.80
3648;DHT22;1840;48.892;15.312;2023-07-31T15:54:22;22.90;68.40